Terminal Aerodrome Forecast
Issued by NWS Los Angeles, CA

Home | Current Version | Previous Version | Text Only | Print | Product List | Glossary On
Versions: 1 2 3 4 5 6 7 8 9 10 11 12 13 14 15 16 17 18 19 20 21 22 23 24
000
FTUS46 KLOX 051100
TAFSMX
TAF
KSMX 051123Z 0512/0612 VRB03KT P6SM OVC015
     FM051600 30006KT P6SM OVC020
     FM051800 31010KT P6SM SCT020
     FM052000 30016G24KT P6SM SCT025
     FM060200 30010KT P6SM SCT020
     FM060400 30008KT P6SM BKN015=

USA.gov is the U.S. government's official web portal to all federal, state and local government web resources and services.